Time;durP1;ratioP1;P1;durP2;ratioP2;P2;SDS_P1;SDS_P2;PMS_P1;PMS_P2;Temp;Humidity;BMP_temperature;BMP_pressure;BME280_temperature;BME280_humidity;BME280_pressure;Samples;Min_cycle;Max_cycle;Signal;HPM_P1;HPM_P2
2021/09/16 00:01:35;;;;;;;3.15;0.85;;;17.50;99.90;;;;;;5072473;28;20163;-85
2021/09/16 00:04:00;;;;;;;3.90;1.20;;;17.50;99.90;;;;;;5055154;28;20029;-85
2021/09/16 00:06:26;;;;;;;4.47;1.25;;;17.50;99.90;;;;;;5057089;28;20032;-84
2021/09/16 00:08:53;;;;;;;5.75;1.30;;;17.40;99.90;;;;;;5059014;28;20028;-85
2021/09/16 00:11:18;;;;;;;5.70;1.17;;;17.40;99.90;;;;;;5077002;28;20436;-85
2021/09/16 00:13:45;;;;;;;5.18;0.80;;;17.40;99.90;;;;;;5076306;28;20025;-85
2021/09/16 00:16:11;;;;;;;4.05;1.10;;;17.40;99.90;;;;;;5075729;28;20080;-86
2021/09/16 00:18:36;;;;;;;3.75;0.95;;;17.50;99.90;;;;;;5057934;28;20062;-85
2021/09/16 00:21:02;;;;;;;4.05;1.05;;;17.40;99.90;;;;;;5057340;28;20036;-85
2021/09/16 00:23:28;;;;;;;5.50;1.10;;;17.40;99.90;;;;;;5057759;28;20029;-85
2021/09/16 00:25:53;;;;;;;4.50;1.40;;;17.40;99.90;;;;;;5076006;28;20086;-84
2021/09/16 00:28:19;;;;;;;6.07;1.60;;;17.40;99.90;;;;;;5057503;28;20037;-85
2021/09/16 00:30:44;;;;;;;4.78;1.10;;;17.40;99.90;;;;;;5057276;28;20029;-85
2021/09/16 00:33:10;;;;;;;5.93;1.55;;;17.40;99.90;;;;;;5057573;28;20025;-85
2021/09/16 00:35:36;;;;;;;4.18;1.33;;;17.40;99.90;;;;;;5057535;28;20025;-84
2021/09/16 00:38:02;;;;;;;6.38;1.50;;;17.40;99.90;;;;;;5057412;28;20040;-85
2021/09/16 00:40:27;;;;;;;4.47;1.25;;;17.30;99.90;;;;;;5056960;28;20026;-85
2021/09/16 00:42:53;;;;;;;4.65;0.90;;;17.40;99.90;;;;;;5057249;28;20389;-85
2021/09/16 00:45:19;;;;;;;2.95;1.08;;;17.40;99.90;;;;;;5057102;28;20037;-85
2021/09/16 00:47:47;;;;;;;4.60;1.00;;;17.40;99.90;;;;;;5057396;28;20035;-85
2021/09/16 00:50:15;;;;;;;4.03;1.48;;;17.40;99.90;;;;;;5056625;28;20028;-85
2021/09/16 00:52:41;;;;;;;5.00;0.80;;;17.40;99.60;;;;;;5057043;28;20370;-85
2021/09/16 00:55:09;;;;;;;2.72;0.85;;;17.40;99.50;;;;;;5057220;28;20078;-85
2021/09/16 00:57:36;;;;;;;4.15;1.20;;;17.40;99.60;;;;;;5074906;28;20024;-85
2021/09/16 01:00:06;;;;;;;4.93;1.15;;;17.40;99.50;;;;;;5056610;28;20120;-85
2021/09/16 01:02:32;;;;;;;5.85;1.30;;;17.40;99.60;;;;;;5056876;28;20397;-85
2021/09/16 01:04:58;;;;;;;6.95;1.90;;;17.30;99.80;;;;;;5057064;28;20025;-85
2021/09/16 01:07:23;;;;;;;6.40;1.90;;;17.30;99.90;;;;;;5056873;28;20051;-85
2021/09/16 01:09:49;;;;;;;6.40;1.60;;;17.30;99.90;;;;;;5056366;28;20047;-85
2021/09/16 01:12:15;;;;;;;6.57;1.90;;;17.30;99.90;;;;;;5074608;28;20021;-85
2021/09/16 01:14:40;;;;;;;7.00;1.60;;;17.30;99.90;;;;;;5056748;28;20031;-85
2021/09/16 01:17:06;;;;;;;4.07;1.38;;;17.20;99.90;;;;;;5056593;28;20024;-85
2021/09/16 01:19:32;;;;;;;5.35;1.30;;;17.20;99.90;;;;;;5074283;28;20031;-84
2021/09/16 01:21:58;;;;;;;4.85;1.50;;;17.20;99.90;;;;;;5074595;28;20020;-85
2021/09/16 01:24:24;;;;;;;5.07;1.55;;;17.10;99.90;;;;;;5056461;28;20056;-85
2021/09/16 01:26:50;;;;;;;4.68;1.10;;;17.10;99.90;;;;;;5056571;28;20157;-85
2021/09/16 01:29:15;;;;;;;4.00;1.00;;;17.10;99.90;;;;;;5073805;28;20027;-85
2021/09/16 01:31:51;;;;;;;3.15;0.90;;;17.10;99.90;;;;;;5056511;28;20119;-85
2021/09/16 01:34:18;;;;;;;4.80;1.27;;;17.10;99.90;;;;;;5074323;28;20020;-85
2021/09/16 01:36:49;;;;;;;6.22;2.00;;;17.10;99.90;;;;;;5074199;28;20031;-85
2021/09/16 01:39:17;;;;;;;5.28;1.50;;;17.10;99.90;;;;;;5055823;28;20036;-85
2021/09/16 01:41:43;;;;;;;4.28;1.35;;;17.10;99.90;;;;;;5056249;28;20423;-85
2021/09/16 01:44:08;;;;;;;3.80;1.25;;;17.00;99.90;;;;;;5056201;28;20040;-85
2021/09/16 01:46:35;;;;;;;4.82;1.05;;;17.00;99.90;;;;;;5056062;28;20456;-85
2021/09/16 01:49:03;;;;;;;10.65;1.42;;;17.00;99.90;;;;;;5055611;28;20021;-85
2021/09/16 01:51:30;;;;;;;4.65;1.25;;;17.00;99.90;;;;;;5055963;28;20086;-85
2021/09/16 01:53:56;;;;;;;4.80;1.08;;;16.90;99.90;;;;;;5056004;28;20111;-85
2021/09/16 01:56:21;;;;;;;3.40;0.90;;;16.90;99.90;;;;;;5055812;28;20020;-85
2021/09/16 01:58:47;;;;;;;3.67;1.02;;;16.90;99.90;;;;;;5055937;28;20025;-85
2021/09/16 02:01:12;;;;;;;6.25;1.17;;;16.90;99.90;;;;;;5055566;28;20393;-85
2021/09/16 02:03:38;;;;;;;4.82;1.10;;;16.90;99.90;;;;;;5055814;28;20108;-85
2021/09/16 02:06:04;;;;;;;4.55;0.90;;;16.90;99.90;;;;;;5055848;28;20119;-85
2021/09/16 02:08:29;;;;;;;5.15;1.20;;;16.90;99.90;;;;;;5055481;28;20028;-85
2021/09/16 02:10:55;;;;;;;5.97;1.10;;;16.80;99.90;;;;;;5055124;28;20029;-85
2021/09/16 02:13:21;;;;;;;4.43;1.00;;;16.80;99.90;;;;;;5055652;28;20021;-85
2021/09/16 02:15:47;;;;;;;5.45;1.20;;;16.80;99.90;;;;;;5074772;28;20028;-85
2021/09/16 02:18:12;;;;;;;8.25;2.08;;;16.70;99.90;;;;;;5056316;28;20029;-85
2021/09/16 02:20:38;;;;;;;4.75;1.23;;;16.70;99.90;;;;;;5054858;28;20029;-85
2021/09/16 02:23:04;;;;;;;8.25;1.40;;;16.70;99.90;;;;;;5055426;28;20032;-85
2021/09/16 02:25:30;;;;;;;2.83;1.02;;;16.60;99.90;;;;;;5073276;28;20036;-85
2021/09/16 02:27:55;;;;;;;4.63;1.10;;;16.60;99.90;;;;;;5073142;28;20037;-85
2021/09/16 02:30:21;;;;;;;6.95;1.30;;;16.60;99.90;;;;;;5054318;28;20052;-85
2021/09/16 02:32:47;;;;;;;6.20;1.40;;;16.50;99.90;;;;;;5055213;28;20028;-85
2021/09/16 02:35:12;;;;;;;3.83;1.00;;;16.50;99.90;;;;;;5055186;28;20024;-84
2021/09/16 02:37:39;;;;;;;4.25;1.15;;;16.50;99.90;;;;;;5055201;28;20029;-85
2021/09/16 02:40:07;;;;;;;5.45;1.10;;;16.50;99.90;;;;;;5054972;28;20036;-85
2021/09/16 02:42:32;;;;;;;3.20;1.10;;;16.50;99.90;;;;;;5055108;28;20111;-84
2021/09/16 02:44:58;;;;;;;5.78;1.30;;;16.50;99.90;;;;;;5054694;28;20068;-85
2021/09/16 02:47:24;;;;;;;4.88;1.33;;;16.40;99.90;;;;;;5072972;28;20039;-85
2021/09/16 02:49:50;;;;;;;6.55;1.38;;;16.40;99.90;;;;;;5054491;28;20097;-85
2021/09/16 02:52:15;;;;;;;3.05;1.10;;;16.40;99.90;;;;;;5054824;28;20552;-85
2021/09/16 02:54:41;;;;;;;4.50;1.30;;;16.30;99.90;;;;;;5072544;28;20107;-85
2021/09/16 02:57:07;;;;;;;4.45;1.20;;;16.30;99.90;;;;;;5054518;28;20028;-85
2021/09/16 02:59:32;;;;;;;6.57;1.27;;;16.30;99.90;;;;;;5053799;28;20119;-85
2021/09/16 03:01:58;;;;;;;3.85;1.50;;;16.30;99.90;;;;;;5072432;28;20056;-85
2021/09/16 03:04:23;;;;;;;4.72;1.05;;;16.30;99.90;;;;;;5054679;28;20031;-85
2021/09/16 03:06:49;;;;;;;6.15;1.67;;;16.30;99.90;;;;;;5054602;28;20023;-85
2021/09/16 03:09:15;;;;;;;7.68;1.80;;;16.30;99.90;;;;;;5054050;28;20025;-85
2021/09/16 03:11:40;;;;;;;8.52;3.25;;;16.20;99.90;;;;;;5054747;28;20559;-85
2021/09/16 03:14:06;;;;;;;6.72;1.90;;;16.20;99.90;;;;;;5054464;28;20052;-85
2021/09/16 03:16:31;;;;;;;6.50;1.65;;;16.20;99.90;;;;;;5054549;28;20021;-85
2021/09/16 03:18:57;;;;;;;5.90;1.35;;;16.20;99.90;;;;;;5071921;28;20020;-84
2021/09/16 03:21:23;;;;;;;6.70;1.70;;;16.20;99.90;;;;;;5072214;28;20496;-85
2021/09/16 03:23:48;;;;;;;8.10;2.00;;;16.20;99.90;;;;;;5054452;28;20066;-85
2021/09/16 03:26:14;;;;;;;3.70;1.73;;;16.20;99.90;;;;;;5054302;28;20099;-85
2021/09/16 03:28:40;;;;;;;5.75;1.80;;;16.20;99.90;;;;;;5054286;28;20024;-85
2021/09/16 03:31:07;;;;;;;7.50;2.00;;;16.10;99.90;;;;;;5071900;28;20024;-84
2021/09/16 03:33:33;;;;;;;5.75;1.77;;;16.10;99.90;;;;;;5054336;28;20093;-85
2021/09/16 03:35:59;;;;;;;5.45;1.60;;;16.10;99.90;;;;;;5054181;28;20032;-84
2021/09/16 03:38:25;;;;;;;8.18;2.10;;;16.10;99.90;;;;;;5054145;28;20098;-85
2021/09/16 03:40:51;;;;;;;7.63;2.28;;;16.10;99.90;;;;;;5053548;28;20063;-85
2021/09/16 03:43:16;;;;;;;7.57;2.38;;;16.10;99.90;;;;;;5054109;28;20028;-85
2021/09/16 03:45:42;;;;;;;6.03;2.65;;;16.10;99.90;;;;;;5054130;28;20054;-84
2021/09/16 03:48:08;;;;;;;5.18;2.10;;;16.00;99.90;;;;;;5054099;28;20028;-85
2021/09/16 03:50:36;;;;;;;8.40;3.13;;;16.00;99.90;;;;;;5053577;28;20031;-85
2021/09/16 03:53:02;;;;;;;8.40;3.00;;;16.00;99.90;;;;;;5072045;28;20099;-85
2021/09/16 03:55:28;;;;;;;5.35;3.03;;;16.00;99.90;;;;;;5053948;28;20021;-85
2021/09/16 03:57:53;;;;;;;8.68;3.35;;;15.90;99.90;;;;;;5071886;28;20025;-85
2021/09/16 04:00:19;;;;;;;8.93;3.53;;;15.90;99.90;;;;;;5053526;28;20028;-85
2021/09/16 04:02:45;;;;;;;9.18;3.60;;;15.90;99.90;;;;;;5054066;28;20031;-85
2021/09/16 04:05:10;;;;;;;8.45;3.63;;;16.00;99.90;;;;;;5054058;28;20362;-85
2021/09/16 04:07:36;;;;;;;8.55;3.22;;;15.90;99.90;;;;;;5054391;28;20051;-85
2021/09/16 04:10:02;;;;;;;11.98;3.60;;;15.90;99.90;;;;;;5055295;28;20024;-85
2021/09/16 04:12:28;;;;;;;11.65;4.07;;;15.90;99.90;;;;;;5072975;28;20100;-85
2021/09/16 04:14:54;;;;;;;7.07;3.85;;;15.90;99.90;;;;;;5054552;28;20112;-84
2021/09/16 04:17:19;;;;;;;9.10;3.67;;;15.90;99.90;;;;;;5071799;28;20020;-85
2021/09/16 04:19:45;;;;;;;8.05;4.13;;;15.80;99.90;;;;;;5071348;28;20025;-84
2021/09/16 04:22:10;;;;;;;10.02;3.92;;;15.80;99.90;;;;;;5053778;28;20116;-85
2021/09/16 04:24:36;;;;;;;9.68;4.40;;;15.70;99.90;;;;;;5053667;28;20092;-85
2021/09/16 04:27:02;;;;;;;7.70;3.70;;;15.70;99.90;;;;;;5053760;28;20017;-85
2021/09/16 04:29:28;;;;;;;10.23;4.28;;;15.70;99.90;;;;;;5071123;28;20089;-84
2021/09/16 04:31:55;;;;;;;8.63;4.45;;;15.70;99.90;;;;;;5053236;28;20018;-85
2021/09/16 04:34:21;;;;;;;10.07;4.35;;;15.60;99.90;;;;;;5071518;28;20044;-84
2021/09/16 04:36:47;;;;;;;10.95;4.30;;;15.70;99.90;;;;;;5053706;28;20020;-85
2021/09/16 04:39:12;;;;;;;7.90;4.10;;;15.70;99.90;;;;;;5053136;28;20032;-85
2021/09/16 04:41:38;;;;;;;9.55;4.47;;;15.70;99.90;;;;;;5071454;28;20083;-84
2021/09/16 04:44:04;;;;;;;7.13;3.95;;;15.60;99.90;;;;;;5071437;28;20473;-84
2021/09/16 04:46:30;;;;;;;8.63;4.32;;;15.60;99.90;;;;;;5053628;28;20037;-85
2021/09/16 04:48:55;;;;;;;8.45;4.20;;;15.60;99.90;;;;;;5052986;28;20025;-84
2021/09/16 04:51:21;;;;;;;8.38;3.90;;;15.60;99.90;;;;;;5053317;28;20497;-85
2021/09/16 04:53:47;;;;;;;8.10;3.90;;;15.60;99.90;;;;;;5057064;28;20052;-85
2021/09/16 04:56:12;;;;;;;11.75;4.25;;;15.60;99.90;;;;;;5057206;28;20037;-85
2021/09/16 04:58:38;;;;;;;8.68;4.40;;;15.60;99.90;;;;;;5075029;28;20488;-84
2021/09/16 05:01:03;;;;;;;10.57;4.25;;;15.60;99.90;;;;;;5056997;28;20074;-84
2021/09/16 05:03:29;;;;;;;8.68;3.85;;;15.60;99.90;;;;;;5056924;28;20396;-85
2021/09/16 05:05:55;;;;;;;8.48;3.85;;;15.60;99.90;;;;;;5056824;28;20020;-86
2021/09/16 05:08:20;;;;;;;9.10;4.13;;;15.60;99.90;;;;;;5056908;28;20028;-85
2021/09/16 05:10:46;;;;;;;8.50;3.95;;;15.70;99.90;;;;;;5056348;28;20012;-85
2021/09/16 05:13:11;;;;;;;7.10;4.28;;;15.70;99.90;;;;;;5056781;28;20484;-85
2021/09/16 05:15:37;;;;;;;8.20;4.20;;;15.60;99.90;;;;;;5074578;28;20143;-85
2021/09/16 05:18:03;;;;;;;9.63;5.07;;;15.60;99.90;;;;;;5056444;28;20029;-85
2021/09/16 05:20:28;;;;;;;7.43;4.28;;;15.60;99.90;;;;;;5060122;28;20024;-84
2021/09/16 05:22:54;;;;;;;11.15;4.80;;;15.60;99.90;;;;;;5058886;28;20025;-84
2021/09/16 05:25:20;;;;;;;10.23;4.72;;;15.70;99.90;;;;;;5057328;28;20035;-84
2021/09/16 05:27:45;;;;;;;11.57;4.22;;;15.70;99.90;;;;;;5057868;28;20025;-84
2021/09/16 05:30:12;;;;;;;10.10;4.43;;;15.70;99.90;;;;;;5056546;28;20023;-84
2021/09/16 05:32:38;;;;;;;10.73;3.90;;;15.70;99.90;;;;;;5056659;28;20027;-84
2021/09/16 05:35:06;;;;;;;9.93;4.10;;;15.70;99.90;;;;;;5056578;28;20016;-84
2021/09/16 05:37:31;;;;;;;9.23;5.07;;;15.70;99.90;;;;;;5056514;28;20481;-84
2021/09/16 05:39:57;;;;;;;7.90;3.90;;;15.70;99.90;;;;;;5074819;28;20040;-84
2021/09/16 05:42:23;;;;;;;9.05;4.15;;;15.70;99.90;;;;;;5057624;28;20024;-84
2021/09/16 05:44:48;;;;;;;7.32;3.92;;;15.70;99.90;;;;;;5095288;22;20020;-86
2021/09/16 05:47:14;;;;;;;9.25;4.10;;;15.70;99.90;;;;;;5036493;28;20567;-86
2021/09/16 05:49:40;;;;;;;8.93;4.00;;;15.80;99.90;;;;;;5035794;28;20017;-86
2021/09/16 05:52:05;;;;;;;7.82;3.63;;;15.70;99.90;;;;;;5036094;28;20488;-86
2021/09/16 05:54:31;;;;;;;8.50;3.90;;;15.70;99.90;;;;;;5053917;28;20111;-86
2021/09/16 05:56:57;;;;;;;8.57;3.42;;;15.70;99.90;;;;;;5032805;28;20112;-85
2021/09/16 05:59:22;;;;;;;13.00;4.18;;;15.70;99.90;;;;;;5015817;28;20052;-86
2021/09/16 06:01:48;;;;;;;9.52;4.03;;;15.80;99.90;;;;;;5016249;28;20564;-85
2021/09/16 06:04:13;;;;;;;8.18;4.00;;;15.80;99.90;;;;;;5015082;28;20031;-86
2021/09/16 06:06:39;;;;;;;9.00;3.92;;;15.80;99.90;;;;;;5033832;28;20385;-86
2021/09/16 06:09:04;;;;;;;8.52;4.00;;;15.80;99.90;;;;;;5015528;28;20060;-86
2021/09/16 06:11:30;;;;;;;8.05;4.15;;;15.80;99.90;;;;;;5016054;28;20112;-86
2021/09/16 06:13:56;;;;;;;11.73;4.43;;;15.90;99.90;;;;;;5015995;28;20068;-86
2021/09/16 06:16:22;;;;;;;9.40;4.03;;;15.90;99.90;;;;;;5015827;28;20022;-86
2021/09/16 06:18:48;;;;;;;10.80;4.28;;;15.80;99.90;;;;;;5015676;28;20428;-86
2021/09/16 06:21:14;;;;;;;8.00;3.90;;;15.90;99.90;;;;;;5015686;28;20167;-86
2021/09/16 06:23:40;;;;;;;9.73;4.40;;;15.90;99.90;;;;;;5015865;28;20033;-86
2021/09/16 06:26:05;;;;;;;12.00;4.30;;;15.90;99.90;;;;;;5016024;28;20036;-85
2021/09/16 06:28:31;;;;;;;10.25;4.10;;;16.00;99.90;;;;;;5032237;28;20146;-86
2021/09/16 06:30:56;;;;;;;8.07;4.15;;;15.90;99.90;;;;;;5015286;28;20026;-86
2021/09/16 06:33:22;;;;;;;7.40;4.10;;;16.00;99.90;;;;;;5033270;28;20101;-86
2021/09/16 06:35:47;;;;;;;8.98;4.07;;;16.00;99.90;;;;;;5032060;28;20495;-86
2021/09/16 06:38:13;;;;;;;6.38;3.95;;;16.00;99.90;;;;;;5033353;28;20029;-86
2021/09/16 06:40:39;;;;;;;10.95;4.70;;;16.00;99.90;;;;;;5015255;28;20030;-87
2021/09/16 06:43:05;;;;;;;8.93;3.95;;;16.00;99.90;;;;;;5015393;28;20039;-86
2021/09/16 06:45:30;;;;;;;8.25;4.13;;;16.00;99.90;;;;;;5015276;28;20041;-85
2021/09/16 06:47:56;;;;;;;7.57;3.92;;;16.00;99.90;;;;;;5031757;28;20465;-86
2021/09/16 06:50:22;;;;;;;11.75;4.53;;;16.00;99.90;;;;;;5014850;28;20429;-86
2021/09/16 06:52:47;;;;;;;8.70;4.13;;;16.00;99.90;;;;;;5015196;28;20021;-86
2021/09/16 06:55:13;;;;;;;10.73;4.75;;;16.00;99.90;;;;;;5015298;28;20022;-86
2021/09/16 06:57:39;;;;;;;7.30;4.13;;;16.00;99.90;;;;;;5015520;28;20080;-86
2021/09/16 07:00:06;;;;;;;8.75;4.60;;;16.00;99.90;;;;;;5014770;28;20029;-86
2021/09/16 07:02:32;;;;;;;10.15;4.63;;;16.00;99.90;;;;;;5014828;28;20033;-87
2021/09/16 07:04:57;;;;;;;9.90;5.10;;;16.00;99.90;;;;;;5032877;28;20033;-86
2021/09/16 07:07:23;;;;;;;7.47;3.95;;;16.00;99.90;;;;;;5015123;28;20036;-86
2021/09/16 07:09:49;;;;;;;9.57;4.90;;;16.00;99.90;;;;;;5014739;28;20551;-86
2021/09/16 07:12:14;;;;;;;10.02;5.22;;;16.00;99.90;;;;;;5014904;28;20034;-86
2021/09/16 07:14:40;;;;;;;10.57;4.80;;;16.00;99.90;;;;;;5014407;28;20524;-86
2021/09/16 07:17:06;;;;;;;9.43;5.60;;;16.00;99.90;;;;;;5032489;28;20097;-86
2021/09/16 07:19:32;;;;;;;9.90;5.00;;;16.00;99.90;;;;;;5030927;28;20140;-86
2021/09/16 07:21:58;;;;;;;10.88;5.00;;;16.00;99.90;;;;;;5014910;28;20026;-86
2021/09/16 07:24:24;;;;;;;9.30;4.72;;;16.00;99.90;;;;;;5032476;28;20029;-86
2021/09/16 07:26:50;;;;;;;11.23;5.15;;;16.00;99.90;;;;;;5014710;28;20059;-85
2021/09/16 07:29:21;;;;;;;10.50;5.47;;;16.10;99.90;;;;;;5014153;28;20057;-86
2021/09/16 07:31:48;;;;;;;12.32;6.00;;;16.10;99.90;;;;;;5014571;28;20379;-86
2021/09/16 07:34:16;;;;;;;7.88;4.32;;;16.10;99.90;;;;;;5014887;28;20025;-86
2021/09/16 07:36:44;;;;;;;16.55;6.10;;;16.10;99.90;;;;;;5014842;28;20026;-86
2021/09/16 07:39:13;;;;;;;9.68;5.57;;;16.10;99.90;;;;;;5014441;28;20025;-86
2021/09/16 07:41:40;;;;;;;8.73;5.22;;;16.20;99.90;;;;;;5030991;28;20035;-86
2021/09/16 07:44:06;;;;;;;11.05;5.35;;;16.20;99.90;;;;;;5014449;28;20036;-86
2021/09/16 07:46:31;;;;;;;10.48;5.57;;;16.30;99.90;;;;;;5014460;28;20564;-86
2021/09/16 07:48:58;;;;;;;12.98;6.03;;;16.30;99.90;;;;;;5031845;28;20108;-86
2021/09/16 07:51:24;;;;;;;10.93;5.75;;;16.30;99.90;;;;;;5014366;28;20018;-86
2021/09/16 07:53:50;;;;;;;10.88;5.57;;;16.30;99.90;;;;;;5032275;28;20021;-86
2021/09/16 07:56:16;;;;;;;8.90;5.15;;;16.40;99.90;;;;;;5014318;28;20493;-86
2021/09/16 07:58:45;;;;;;;12.30;6.05;;;16.40;99.90;;;;;;5014210;28;20025;-85
2021/09/16 08:01:11;;;;;;;10.75;5.22;;;16.50;99.90;;;;;;5014100;28;20068;-86
2021/09/16 08:03:37;;;;;;;14.30;5.82;;;16.60;99.90;;;;;;5014464;28;20033;-86
2021/09/16 08:06:03;;;;;;;10.35;5.60;;;16.60;99.90;;;;;;5014497;28;20029;-86
2021/09/16 08:08:29;;;;;;;10.18;5.40;;;16.60;99.90;;;;;;5031914;28;20398;-87
2021/09/16 08:10:55;;;;;;;14.85;6.18;;;16.60;99.90;;;;;;5013826;28;20029;-86
2021/09/16 08:13:21;;;;;;;20.08;7.40;;;16.60;99.90;;;;;;5014176;28;20029;-86
2021/09/16 08:15:46;;;;;;;15.63;5.93;;;16.70;99.90;;;;;;5014276;28;20105;-86
2021/09/16 08:18:12;;;;;;;11.95;5.68;;;16.70;99.90;;;;;;5032036;28;20022;-86
2021/09/16 08:20:44;;;;;;;11.43;4.85;;;16.70;99.90;;;;;;5031452;28;20032;-86
2021/09/16 08:23:10;;;;;;;12.75;4.90;;;16.80;99.90;;;;;;5014046;28;20056;-86
2021/09/16 08:25:36;;;;;;;8.82;4.43;;;16.80;99.90;;;;;;5014228;28;20430;-87
2021/09/16 08:28:01;;;;;;;8.27;4.30;;;16.90;99.90;;;;;;5016417;28;20025;-86
2021/09/16 08:30:27;;;;;;;9.70;4.65;;;16.80;99.90;;;;;;5018265;28;20021;-85
2021/09/16 08:32:53;;;;;;;9.30;4.32;;;16.90;99.90;;;;;;5018102;28;20021;-86
2021/09/16 08:35:19;;;;;;;10.25;4.00;;;16.90;99.90;;;;;;5017923;28;20065;-86
2021/09/16 08:37:46;;;;;;;11.65;4.40;;;16.90;99.90;;;;;;5017716;28;20036;-86
2021/09/16 08:40:12;;;;;;;8.80;3.90;;;16.90;99.90;;;;;;5033908;28;20025;-86
2021/09/16 08:42:40;;;;;;;7.10;3.58;;;17.00;99.90;;;;;;5034235;28;20532;-86
2021/09/16 08:45:08;;;;;;;8.23;3.97;;;17.00;99.90;;;;;;5017659;28;20057;-86
2021/09/16 08:47:36;;;;;;;10.60;4.22;;;17.10;99.90;;;;;;5017470;28;20025;-86
2021/09/16 08:50:03;;;;;;;8.05;3.13;;;17.10;99.90;;;;;;5017573;28;20033;-86
2021/09/16 08:52:30;;;;;;;8.27;3.65;;;17.20;99.90;;;;;;5018802;28;20044;-85
2021/09/16 08:54:57;;;;;;;8.20;3.50;;;17.20;99.90;;;;;;5017794;28;20429;-87
2021/09/16 08:57:24;;;;;;;11.95;4.20;;;17.20;99.90;;;;;;5017540;28;20116;-87
2021/09/16 08:59:50;;;;;;;7.35;3.88;;;17.30;99.90;;;;;;5034640;28;20026;-86
2021/09/16 09:02:15;;;;;;;9.45;3.95;;;17.30;99.90;;;;;;5017411;28;20032;-86
2021/09/16 09:04:41;;;;;;;8.23;3.53;;;17.30;99.90;;;;;;5017322;28;20030;-86
2021/09/16 09:07:07;;;;;;;7.40;3.30;;;17.40;99.90;;;;;;5035091;28;20096;-86
2021/09/16 09:09:33;;;;;;;10.48;3.50;;;17.40;99.90;;;;;;5016712;28;20030;-86
2021/09/16 09:12:03;;;;;;;8.23;3.72;;;17.40;99.90;;;;;;5034769;28;20540;-86
2021/09/16 09:14:35;;;;;;;8.98;3.88;;;17.30;99.90;;;;;;5035108;28;20106;-86
2021/09/16 09:17:14;;;;;;;9.30;3.33;;;17.30;99.90;;;;;;5017143;28;20120;-86
2021/09/16 09:19:41;;;;;;;7.80;3.22;;;17.30;99.90;;;;;;5016623;28;20470;-85
2021/09/16 09:22:07;;;;;;;8.95;3.47;;;17.30;99.90;;;;;;5016785;28;20033;-86
2021/09/16 09:24:36;;;;;;;8.40;3.72;;;17.40;99.90;;;;;;5017118;28;20033;-86
2021/09/16 09:27:23;;;;;;;9.40;3.80;;;17.40;99.90;;;;;;5016872;28;20026;-86
2021/09/16 09:30:09;;;;;;;8.63;3.88;;;17.40;99.90;;;;;;5034132;28;20032;-86
2021/09/16 09:33:01;;;;;;;15.57;4.55;;;17.40;99.90;;;;;;5016607;28;20474;-86
2021/09/16 09:35:39;;;;;;;6.03;2.92;;;17.40;99.90;;;;;;5034728;28;20021;-86
2021/09/16 09:38:19;;;;;;;12.20;3.60;;;17.40;99.90;;;;;;5034358;28;20127;-86
2021/09/16 09:40:49;;;;;;;6.70;3.05;;;17.50;99.90;;;;;;5034001;28;20030;-86
2021/09/16 09:43:23;;;;;;;8.88;3.72;;;17.50;99.90;;;;;;5016642;28;20035;-86
2021/09/16 09:46:09;;;;;;;11.95;3.70;;;17.60;99.90;;;;;;5034520;28;20033;-86
2021/09/16 09:48:39;;;;;;;9.05;3.83;;;17.60;99.90;;;;;;5016637;28;20033;-86
2021/09/16 09:51:07;;;;;;;10.30;3.58;;;17.70;99.90;;;;;;5032768;28;20029;-86
2021/09/16 09:53:41;;;;;;;8.85;3.13;;;17.70;99.90;;;;;;5016283;28;20025;-86
2021/09/16 09:56:18;;;;;;;9.45;3.38;;;17.80;99.90;;;;;;5033980;28;20021;-86
2021/09/16 09:58:45;;;;;;;8.90;3.83;;;17.90;99.90;;;;;;5016435;28;20029;-86
2021/09/16 10:01:35;;;;;;;9.55;3.30;;;17.90;99.90;;;;;;5015969;28;20035;-86
2021/09/16 10:04:28;;;;;;;9.35;2.88;;;17.90;99.90;;;;;;5016183;28;20021;-86
2021/09/16 10:06:55;;;;;;;6.03;2.88;;;17.90;99.90;;;;;;5033908;28;20053;-86
2021/09/16 10:09:21;;;;;;;7.72;3.38;;;18.00;99.90;;;;;;5032177;28;20025;-86
2021/09/16 10:11:48;;;;;;;7.80;2.80;;;18.10;99.90;;;;;;5016299;28;20112;-86
2021/09/16 10:14:15;;;;;;;6.85;3.00;;;18.20;99.90;;;;;;5015939;28;20029;-87
2021/09/16 10:16:41;;;;;;;8.63;3.13;;;18.30;99.90;;;;;;5015719;28;20114;-86
2021/09/16 10:19:07;;;;;;;9.57;3.10;;;18.30;99.90;;;;;;5015136;28;20026;-86
2021/09/16 10:21:34;;;;;;;10.38;3.20;;;18.30;99.90;;;;;;5015675;28;20029;-86
2021/09/16 10:24:01;;;;;;;6.50;3.10;;;18.40;99.90;;;;;;5015712;28;20048;-86
2021/09/16 10:26:37;;;;;;;8.85;3.33;;;18.30;99.90;;;;;;5032002;28;20030;-86
2021/09/16 10:29:06;;;;;;;9.07;4.07;;;18.40;99.90;;;;;;5015106;28;20021;-86
2021/09/16 10:31:32;;;;;;;7.47;3.22;;;18.40;99.90;;;;;;5015671;28;20132;-86
2021/09/16 10:33:58;;;;;;;5.88;2.50;;;18.30;99.90;;;;;;5015398;28;20112;-86
2021/09/16 10:36:24;;;;;;;4.00;2.33;;;18.30;99.90;;;;;;5015155;28;20028;-86
2021/09/16 10:38:55;;;;;;;6.82;2.95;;;18.30;99.90;;;;;;5032662;28;20029;-85
2021/09/16 10:41:34;;;;;;;5.63;2.67;;;18.30;99.90;;;;;;5015404;28;20064;-86
2021/09/16 10:43:59;;;;;;;5.25;2.05;;;18.30;99.90;;;;;;5015277;28;20115;-86
2021/09/16 10:46:31;;;;;;;3.85;1.58;;;18.20;99.90;;;;;;5015138;28;20522;-86
2021/09/16 10:49:17;;;;;;;6.05;1.73;;;18.20;99.90;;;;;;5015263;28;20037;-86
2021/09/16 10:51:44;;;;;;;5.32;2.10;;;18.30;99.60;;;;;;5015387;28;20025;-86
2021/09/16 10:54:52;;;;;;;4.97;2.13;;;18.40;99.90;;;;;;5032992;28;20434;-86
2021/09/16 10:57:35;;;;;;;4.53;2.30;;;18.50;99.90;;;;;;5010540;28;20045;-86
2021/09/16 11:00:09;;;;;;;5.55;2.20;;;18.50;99.90;;;;;;5014556;28;20371;-86
2021/09/16 11:02:45;;;;;;;6.57;2.03;;;18.50;99.80;;;;;;5014962;28;20029;-86
2021/09/16 11:05:17;;;;;;;4.15;1.42;;;18.50;99.60;;;;;;5032595;28;20020;-86
2021/09/16 11:07:44;;;;;;;8.95;1.40;;;18.60;99.00;;;;;;5031268;28;20021;-86
2021/09/16 11:10:24;;;;;;;5.22;2.00;;;18.50;98.90;;;;;;5014331;28;20022;-86
2021/09/16 11:12:52;;;;;;;6.85;2.10;;;18.50;99.20;;;;;;5014725;28;20397;-86
2021/09/16 11:15:47;;;;;;;6.57;2.17;;;18.60;99.40;;;;;;5014866;28;20021;-86
2021/09/16 11:18:18;;;;;;;4.43;1.40;;;18.60;99.10;;;;;;5010410;28;20038;-86
2021/09/16 11:20:45;;;;;;;3.75;1.63;;;18.70;98.70;;;;;;5014352;28;20493;-86
2021/09/16 11:23:12;;;;;;;5.95;1.73;;;18.70;98.30;;;;;;5014829;28;20066;-86
2021/09/16 11:25:47;;;;;;;2.90;1.52;;;18.80;98.20;;;;;;5032487;28;20045;-86
2021/09/16 11:28:13;;;;;;;4.03;1.50;;;18.80;98.30;;;;;;5032425;28;20029;-85
2021/09/16 11:30:41;;;;;;;3.92;1.48;;;18.80;98.10;;;;;;5013875;28;20108;-85
2021/09/16 11:33:12;;;;;;;7.28;2.38;;;18.80;98.70;;;;;;5032315;28;20111;-86
2021/09/16 11:35:38;;;;;;;4.25;1.70;;;18.80;98.60;;;;;;5014992;28;20049;-85
2021/09/16 11:38:05;;;;;;;6.65;2.30;;;18.80;99.00;;;;;;5014430;28;20040;-86
2021/09/16 11:40:34;;;;;;;6.25;2.25;;;18.80;99.10;;;;;;5032141;28;20032;-86
2021/09/16 11:43:04;;;;;;;4.80;1.85;;;18.80;98.90;;;;;;5031974;28;20032;-86
2021/09/16 11:45:31;;;;;;;6.40;1.98;;;18.80;99.00;;;;;;5044121;23;20045;-85
2021/09/16 11:47:59;;;;;;;4.38;1.67;;;18.90;98.60;;;;;;5051950;28;20473;-85
2021/09/16 11:50:39;;;;;;;4.72;1.65;;;18.80;98.50;;;;;;5051420;28;20032;-85
2021/09/16 11:53:10;;;;;;;5.15;1.88;;;18.90;98.60;;;;;;5034152;28;20049;-85
2021/09/16 11:56:00;;;;;;;5.68;2.30;;;18.90;98.40;;;;;;5033998;28;20029;-85
2021/09/16 11:58:32;;;;;;;9.32;2.38;;;18.90;98.60;;;;;;5051951;28;20028;-84
2021/09/16 12:01:06;;;;;;;4.15;1.75;;;19.00;98.80;;;;;;5033520;28;20400;-85
2021/09/16 12:03:34;;;;;;;6.30;1.83;;;19.00;98.50;;;;;;5054354;28;20025;-85
2021/09/16 12:06:01;;;;;;;4.05;2.00;;;19.00;97.80;;;;;;5055856;28;20027;-85
2021/09/16 12:08:31;;;;;;;7.03;2.20;;;19.00;97.90;;;;;;5037836;28;20036;-85
2021/09/16 12:11:07;;;;;;;7.03;2.60;;;19.00;97.90;;;;;;5055330;28;20531;-85
2021/09/16 12:13:34;;;;;;;5.32;2.20;;;18.90;98.20;;;;;;5037994;28;20060;-85
2021/09/16 12:16:07;;;;;;;6.60;2.20;;;18.90;98.70;;;;;;5037970;28;20125;-85
2021/09/16 12:18:37;;;;;;;5.30;2.42;;;18.80;98.50;;;;;;5037830;28;20028;-85
2021/09/16 12:21:05;;;;;;;3.65;2.00;;;18.90;98.50;;;;;;5037172;28;20116;-85
2021/09/16 12:23:31;;;;;;;5.65;2.35;;;18.90;98.30;;;;;;5043793;28;20087;-84
2021/09/16 12:26:14;;;;;;;5.93;2.22;;;18.90;98.00;;;;;;5044526;28;20128;-85
2021/09/16 12:28:55;;;;;;;4.63;1.95;;;18.90;97.90;;;;;;5063491;28;20025;-86
2021/09/16 12:31:28;;;;;;;7.68;2.10;;;18.90;97.60;;;;;;5045063;28;20063;-85
2021/09/16 12:34:05;;;;;;;5.68;1.95;;;18.90;97.60;;;;;;5045676;28;20389;-86
2021/09/16 12:36:32;;;;;;;3.80;2.03;;;18.90;97.60;;;;;;5059817;28;20079;-85
2021/09/16 12:39:06;;;;;;;6.20;2.63;;;19.00;97.40;;;;;;5041098;28;20029;-85
2021/09/16 12:41:41;;;;;;;6.53;2.67;;;19.00;97.60;;;;;;5042892;28;20083;-86
2021/09/16 12:44:08;;;;;;;8.25;2.40;;;19.00;98.10;;;;;;5044790;28;20389;-85
2021/09/16 12:46:45;;;;;;;6.95;2.20;;;19.00;97.50;;;;;;5044124;28;20067;-85
2021/09/16 12:49:28;;;;;;;5.95;2.78;;;19.10;97.20;;;;;;5043627;28;20036;-85